sensor_id;sensor_type;location;lat;lon;timestamp;P1;durP1;ratioP1;P2;durP2;ratioP2
11541;SDS011;5827;49.482;7.716;2023-03-23T00:01:10;1.33;;;1.00;;
11541;SDS011;5827;49.482;7.716;2023-03-23T00:03:19;1.03;;;0.93;;
11541;SDS011;5827;49.482;7.716;2023-03-23T00:05:21;1.53;;;1.30;;
11541;SDS011;5827;49.482;7.716;2023-03-23T00:07:22;1.37;;;1.10;;
11541;SDS011;5827;49.482;7.716;2023-03-23T00:09:27;1.37;;;1.07;;
11541;SDS011;5827;49.482;7.716;2023-03-23T00:11:31;1.23;;;1.17;;
11541;SDS011;5827;49.482;7.716;2023-03-23T00:13:33;1.20;;;1.10;;
11541;SDS011;5827;49.482;7.716;2023-03-23T00:15:35;1.23;;;1.13;;
11541;SDS011;5827;49.482;7.716;2023-03-23T00:17:41;1.10;;;1.00;;
11541;SDS011;5827;49.482;7.716;2023-03-23T00:19:43;1.33;;;1.23;;
11541;SDS011;5827;49.482;7.716;2023-03-23T00:21:47;1.30;;;1.00;;
11541;SDS011;5827;49.482;7.716;2023-03-23T00:23:53;1.50;;;1.17;;
11541;SDS011;5827;49.482;7.716;2023-03-23T00:25:55;1.23;;;1.07;;
11541;SDS011;5827;49.482;7.716;2023-03-23T00:27:58;1.20;;;1.10;;
11541;SDS011;5827;49.482;7.716;2023-03-23T00:30:00;1.37;;;1.17;;
11541;SDS011;5827;49.482;7.716;2023-03-23T00:32:02;1.30;;;1.20;;
11541;SDS011;5827;49.482;7.716;2023-03-23T00:34:04;1.37;;;1.20;;
11541;SDS011;5827;49.482;7.716;2023-03-23T00:36:06;2.57;;;1.30;;
11541;SDS011;5827;49.482;7.716;2023-03-23T00:38:09;2.17;;;1.50;;
11541;SDS011;5827;49.482;7.716;2023-03-23T00:40:11;1.60;;;1.10;;
11541;SDS011;5827;49.482;7.716;2023-03-23T00:42:13;1.80;;;1.53;;
11541;SDS011;5827;49.482;7.716;2023-03-23T00:44:17;1.30;;;1.20;;
11541;SDS011;5827;49.482;7.716;2023-03-23T00:46:19;1.47;;;1.27;;
11541;SDS011;5827;49.482;7.716;2023-03-23T00:48:21;1.50;;;1.40;;
11541;SDS011;5827;49.482;7.716;2023-03-23T00:50:23;1.60;;;1.30;;
11541;SDS011;5827;49.482;7.716;2023-03-23T00:52:25;1.30;;;1.20;;
11541;SDS011;5827;49.482;7.716;2023-03-23T00:54:26;1.50;;;1.40;;
11541;SDS011;5827;49.482;7.716;2023-03-23T00:56:28;2.03;;;1.30;;
11541;SDS011;5827;49.482;7.716;2023-03-23T00:58:30;1.70;;;1.30;;
11541;SDS011;5827;49.482;7.716;2023-03-23T01:00:33;1.33;;;1.23;;
11541;SDS011;5827;49.482;7.716;2023-03-23T01:02:34;2.57;;;1.40;;
11541;SDS011;5827;49.482;7.716;2023-03-23T01:04:37;1.63;;;1.23;;
11541;SDS011;5827;49.482;7.716;2023-03-23T01:06:40;1.67;;;1.37;;
11541;SDS011;5827;49.482;7.716;2023-03-23T01:08:44;1.43;;;1.33;;
11541;SDS011;5827;49.482;7.716;2023-03-23T01:10:46;1.30;;;1.20;;
11541;SDS011;5827;49.482;7.716;2023-03-23T01:12:48;1.67;;;1.37;;
11541;SDS011;5827;49.482;7.716;2023-03-23T01:14:49;1.87;;;1.27;;
11541;SDS011;5827;49.482;7.716;2023-03-23T01:16:52;1.30;;;1.20;;
11541;SDS011;5827;49.482;7.716;2023-03-23T01:18:54;1.37;;;1.10;;
11541;SDS011;5827;49.482;7.716;2023-03-23T01:20:55;1.60;;;1.30;;
11541;SDS011;5827;49.482;7.716;2023-03-23T01:22:57;1.53;;;1.43;;
11541;SDS011;5827;49.482;7.716;2023-03-23T01:25:00;1.50;;;1.40;;
11541;SDS011;5827;49.482;7.716;2023-03-23T01:27:02;2.33;;;1.20;;
11541;SDS011;5827;49.482;7.716;2023-03-23T01:29:06;1.27;;;1.13;;
11541;SDS011;5827;49.482;7.716;2023-03-23T01:31:08;1.93;;;1.23;;
11541;SDS011;5827;49.482;7.716;2023-03-23T01:33:13;1.70;;;1.43;;
11541;SDS011;5827;49.482;7.716;2023-03-23T01:35:15;2.37;;;1.47;;
11541;SDS011;5827;49.482;7.716;2023-03-23T01:37:17;1.67;;;1.40;;
11541;SDS011;5827;49.482;7.716;2023-03-23T01:39:19;1.93;;;1.67;;
11541;SDS011;5827;49.482;7.716;2023-03-23T01:41:21;1.40;;;1.20;;
11541;SDS011;5827;49.482;7.716;2023-03-23T01:43:23;2.63;;;1.50;;
11541;SDS011;5827;49.482;7.716;2023-03-23T01:45:27;1.50;;;1.30;;
11541;SDS011;5827;49.482;7.716;2023-03-23T01:47:30;1.87;;;1.67;;
11541;SDS011;5827;49.482;7.716;2023-03-23T01:49:32;3.20;;;1.40;;
11541;SDS011;5827;49.482;7.716;2023-03-23T01:51:38;1.87;;;1.47;;
11541;SDS011;5827;49.482;7.716;2023-03-23T01:53:43;2.33;;;1.40;;
11541;SDS011;5827;49.482;7.716;2023-03-23T01:55:47;2.93;;;1.43;;
11541;SDS011;5827;49.482;7.716;2023-03-23T01:57:53;1.87;;;1.20;;
11541;SDS011;5827;49.482;7.716;2023-03-23T01:59:55;2.23;;;1.30;;
11541;SDS011;5827;49.482;7.716;2023-03-23T02:02:10;2.90;;;1.30;;
11541;SDS011;5827;49.482;7.716;2023-03-23T02:04:12;2.10;;;1.40;;
11541;SDS011;5827;49.482;7.716;2023-03-23T02:06:16;1.40;;;1.30;;
11541;SDS011;5827;49.482;7.716;2023-03-23T02:08:18;2.80;;;1.50;;
11541;SDS011;5827;49.482;7.716;2023-03-23T02:10:20;1.47;;;1.33;;
11541;SDS011;5827;49.482;7.716;2023-03-23T02:12:22;2.30;;;1.43;;
11541;SDS011;5827;49.482;7.716;2023-03-23T02:14:23;2.70;;;1.70;;
11541;SDS011;5827;49.482;7.716;2023-03-23T02:16:30;1.83;;;1.70;;
11541;SDS011;5827;49.482;7.716;2023-03-23T02:18:37;1.67;;;1.37;;
11541;SDS011;5827;49.482;7.716;2023-03-23T02:20:56;1.53;;;1.40;;
11541;SDS011;5827;49.482;7.716;2023-03-23T02:23:21;1.57;;;1.47;;
11541;SDS011;5827;49.482;7.716;2023-03-23T02:25:36;1.90;;;1.40;;
11541;SDS011;5827;49.482;7.716;2023-03-23T02:30:27;2.37;;;1.57;;
11541;SDS011;5827;49.482;7.716;2023-03-23T02:32:49;2.13;;;1.30;;
11541;SDS011;5827;49.482;7.716;2023-03-23T02:35:04;1.83;;;1.27;;
11541;SDS011;5827;49.482;7.716;2023-03-23T02:37:10;2.03;;;1.63;;
11541;SDS011;5827;49.482;7.716;2023-03-23T02:39:17;1.30;;;1.20;;
11541;SDS011;5827;49.482;7.716;2023-03-23T02:41:22;1.60;;;1.50;;
11541;SDS011;5827;49.482;7.716;2023-03-23T02:43:30;1.50;;;1.40;;
11541;SDS011;5827;49.482;7.716;2023-03-23T02:45:37;2.10;;;1.40;;
11541;SDS011;5827;49.482;7.716;2023-03-23T02:47:39;1.57;;;1.47;;
11541;SDS011;5827;49.482;7.716;2023-03-23T02:49:43;1.40;;;1.30;;
11541;SDS011;5827;49.482;7.716;2023-03-23T02:51:48;1.97;;;1.60;;
11541;SDS011;5827;49.482;7.716;2023-03-23T02:53:51;1.60;;;1.50;;
11541;SDS011;5827;49.482;7.716;2023-03-23T02:55:56;1.40;;;1.30;;
11541;SDS011;5827;49.482;7.716;2023-03-23T02:57:58;1.50;;;1.40;;
11541;SDS011;5827;49.482;7.716;2023-03-23T03:00:03;2.27;;;1.40;;
11541;SDS011;5827;49.482;7.716;2023-03-23T03:02:07;1.50;;;1.40;;
11541;SDS011;5827;49.482;7.716;2023-03-23T03:04:15;1.50;;;1.40;;
11541;SDS011;5827;49.482;7.716;2023-03-23T03:06:21;2.03;;;1.50;;
11541;SDS011;5827;49.482;7.716;2023-03-23T03:08:32;1.57;;;1.30;;
11541;SDS011;5827;49.482;7.716;2023-03-23T03:10:43;1.70;;;1.60;;
11541;SDS011;5827;49.482;7.716;2023-03-23T03:12:51;2.30;;;1.40;;
11541;SDS011;5827;49.482;7.716;2023-03-23T03:14:58;3.47;;;1.40;;
11541;SDS011;5827;49.482;7.716;2023-03-23T03:17:10;1.77;;;1.50;;
11541;SDS011;5827;49.482;7.716;2023-03-23T03:19:19;1.47;;;1.37;;
11541;SDS011;5827;49.482;7.716;2023-03-23T03:21:26;2.53;;;1.60;;
11541;SDS011;5827;49.482;7.716;2023-03-23T03:23:32;1.50;;;1.40;;
11541;SDS011;5827;49.482;7.716;2023-03-23T03:25:35;1.43;;;1.30;;
11541;SDS011;5827;49.482;7.716;2023-03-23T03:27:38;1.40;;;1.30;;
11541;SDS011;5827;49.482;7.716;2023-03-23T03:29:41;2.60;;;1.50;;
11541;SDS011;5827;49.482;7.716;2023-03-23T03:31:49;1.70;;;1.50;;
11541;SDS011;5827;49.482;7.716;2023-03-23T03:33:55;1.50;;;1.40;;
11541;SDS011;5827;49.482;7.716;2023-03-23T03:35:57;2.07;;;1.60;;
11541;SDS011;5827;49.482;7.716;2023-03-23T03:38:04;1.50;;;1.40;;
11541;SDS011;5827;49.482;7.716;2023-03-23T03:40:10;1.73;;;1.63;;
11541;SDS011;5827;49.482;7.716;2023-03-23T03:42:14;1.50;;;1.40;;
11541;SDS011;5827;49.482;7.716;2023-03-23T03:44:15;1.60;;;1.33;;
11541;SDS011;5827;49.482;7.716;2023-03-23T03:46:17;1.97;;;1.60;;
11541;SDS011;5827;49.482;7.716;2023-03-23T03:48:18;1.97;;;1.50;;
11541;SDS011;5827;49.482;7.716;2023-03-23T03:50:20;2.03;;;1.50;;
11541;SDS011;5827;49.482;7.716;2023-03-23T03:52:22;1.60;;;1.50;;
11541;SDS011;5827;49.482;7.716;2023-03-23T03:54:23;1.83;;;1.40;;
11541;SDS011;5827;49.482;7.716;2023-03-23T03:56:27;1.60;;;1.50;;
11541;SDS011;5827;49.482;7.716;2023-03-23T03:58:28;5.00;;;1.90;;
11541;SDS011;5827;49.482;7.716;2023-03-23T04:00:31;2.23;;;1.60;;
11541;SDS011;5827;49.482;7.716;2023-03-23T04:02:33;1.87;;;1.57;;
11541;SDS011;5827;49.482;7.716;2023-03-23T04:04:35;2.33;;;1.50;;
11541;SDS011;5827;49.482;7.716;2023-03-23T04:06:36;1.60;;;1.50;;
11541;SDS011;5827;49.482;7.716;2023-03-23T04:08:38;3.40;;;1.63;;
11541;SDS011;5827;49.482;7.716;2023-03-23T04:10:41;1.70;;;1.60;;
11541;SDS011;5827;49.482;7.716;2023-03-23T04:12:44;1.70;;;1.60;;
11541;SDS011;5827;49.482;7.716;2023-03-23T04:14:46;1.80;;;1.50;;
11541;SDS011;5827;49.482;7.716;2023-03-23T04:16:47;1.83;;;1.57;;
11541;SDS011;5827;49.482;7.716;2023-03-23T04:18:51;4.27;;;2.13;;
11541;SDS011;5827;49.482;7.716;2023-03-23T04:20:56;1.70;;;1.60;;
11541;SDS011;5827;49.482;7.716;2023-03-23T04:22:59;2.77;;;1.70;;
11541;SDS011;5827;49.482;7.716;2023-03-23T04:25:02;1.80;;;1.70;;
11541;SDS011;5827;49.482;7.716;2023-03-23T04:27:06;2.97;;;1.70;;
11541;SDS011;5827;49.482;7.716;2023-03-23T04:29:09;2.87;;;1.57;;
11541;SDS011;5827;49.482;7.716;2023-03-23T04:31:12;1.97;;;1.70;;
11541;SDS011;5827;49.482;7.716;2023-03-23T04:33:14;3.23;;;1.80;;
11541;SDS011;5827;49.482;7.716;2023-03-23T04:35:17;2.50;;;1.73;;
11541;SDS011;5827;49.482;7.716;2023-03-23T04:37:19;2.40;;;1.87;;
11541;SDS011;5827;49.482;7.716;2023-03-23T04:39:25;2.37;;;2.07;;
11541;SDS011;5827;49.482;7.716;2023-03-23T04:41:29;2.00;;;1.70;;
11541;SDS011;5827;49.482;7.716;2023-03-23T04:43:30;4.13;;;2.10;;
11541;SDS011;5827;49.482;7.716;2023-03-23T04:45:34;2.10;;;1.83;;
11541;SDS011;5827;49.482;7.716;2023-03-23T04:47:37;3.07;;;1.97;;
11541;SDS011;5827;49.482;7.716;2023-03-23T04:49:42;4.03;;;2.00;;
11541;SDS011;5827;49.482;7.716;2023-03-23T04:51:43;2.80;;;1.97;;
11541;SDS011;5827;49.482;7.716;2023-03-23T04:53:45;2.23;;;2.03;;
11541;SDS011;5827;49.482;7.716;2023-03-23T04:55:47;3.03;;;1.70;;
11541;SDS011;5827;49.482;7.716;2023-03-23T04:57:49;1.90;;;1.80;;
11541;SDS011;5827;49.482;7.716;2023-03-23T04:59:51;2.27;;;2.07;;
11541;SDS011;5827;49.482;7.716;2023-03-23T05:01:54;2.47;;;1.90;;
11541;SDS011;5827;49.482;7.716;2023-03-23T05:03:56;2.00;;;1.63;;
11541;SDS011;5827;49.482;7.716;2023-03-23T05:05:57;2.30;;;2.10;;
11541;SDS011;5827;49.482;7.716;2023-03-23T05:08:03;2.67;;;1.93;;
11541;SDS011;5827;49.482;7.716;2023-03-23T05:10:06;2.50;;;1.90;;
11541;SDS011;5827;49.482;7.716;2023-03-23T05:12:11;2.00;;;1.73;;
11541;SDS011;5827;49.482;7.716;2023-03-23T05:14:13;2.50;;;1.90;;
11541;SDS011;5827;49.482;7.716;2023-03-23T05:16:15;5.20;;;2.37;;
11541;SDS011;5827;49.482;7.716;2023-03-23T05:18:17;2.83;;;2.40;;
11541;SDS011;5827;49.482;7.716;2023-03-23T05:20:20;3.87;;;2.13;;
11541;SDS011;5827;49.482;7.716;2023-03-23T05:22:22;2.43;;;2.23;;
11541;SDS011;5827;49.482;7.716;2023-03-23T05:24:23;4.20;;;2.67;;
11541;SDS011;5827;49.482;7.716;2023-03-23T05:26:25;2.50;;;2.30;;
11541;SDS011;5827;49.482;7.716;2023-03-23T05:28:28;4.00;;;2.10;;
11541;SDS011;5827;49.482;7.716;2023-03-23T05:30:31;2.73;;;2.50;;
11541;SDS011;5827;49.482;7.716;2023-03-23T05:32:33;2.63;;;2.30;;
11541;SDS011;5827;49.482;7.716;2023-03-23T05:34:38;3.13;;;2.33;;
11541;SDS011;5827;49.482;7.716;2023-03-23T05:36:40;2.73;;;2.23;;
11541;SDS011;5827;49.482;7.716;2023-03-23T05:38:43;3.97;;;2.00;;
11541;SDS011;5827;49.482;7.716;2023-03-23T05:40:47;3.53;;;2.00;;
11541;SDS011;5827;49.482;7.716;2023-03-23T05:42:49;2.87;;;2.23;;
11541;SDS011;5827;49.482;7.716;2023-03-23T05:44:50;2.60;;;1.90;;
11541;SDS011;5827;49.482;7.716;2023-03-23T05:46:53;2.07;;;1.83;;
11541;SDS011;5827;49.482;7.716;2023-03-23T05:48:54;2.10;;;1.90;;
11541;SDS011;5827;49.482;7.716;2023-03-23T05:50:57;3.53;;;2.00;;
11541;SDS011;5827;49.482;7.716;2023-03-23T05:52:58;2.30;;;2.10;;
11541;SDS011;5827;49.482;7.716;2023-03-23T05:55:00;3.47;;;2.30;;
11541;SDS011;5827;49.482;7.716;2023-03-23T05:57:03;2.60;;;1.97;;
11541;SDS011;5827;49.482;7.716;2023-03-23T05:59:05;2.90;;;2.00;;
11541;SDS011;5827;49.482;7.716;2023-03-23T06:01:07;2.93;;;2.00;;
11541;SDS011;5827;49.482;7.716;2023-03-23T06:03:09;2.07;;;1.87;;
11541;SDS011;5827;49.482;7.716;2023-03-23T06:05:10;3.30;;;2.10;;
11541;SDS011;5827;49.482;7.716;2023-03-23T06:07:13;2.70;;;1.90;;
11541;SDS011;5827;49.482;7.716;2023-03-23T06:09:15;5.63;;;2.23;;
11541;SDS011;5827;49.482;7.716;2023-03-23T06:11:17;2.57;;;2.30;;
11541;SDS011;5827;49.482;7.716;2023-03-23T06:13:18;2.97;;;2.30;;
11541;SDS011;5827;49.482;7.716;2023-03-23T06:15:20;5.07;;;2.57;;
11541;SDS011;5827;49.482;7.716;2023-03-23T06:17:21;3.90;;;2.70;;
11541;SDS011;5827;49.482;7.716;2023-03-23T06:19:23;2.97;;;2.50;;
11541;SDS011;5827;49.482;7.716;2023-03-23T06:21:26;3.77;;;2.37;;
11541;SDS011;5827;49.482;7.716;2023-03-23T06:23:30;2.93;;;2.40;;
11541;SDS011;5827;49.482;7.716;2023-03-23T06:25:31;4.30;;;2.53;;
11541;SDS011;5827;49.482;7.716;2023-03-23T06:27:33;3.87;;;2.60;;
11541;SDS011;5827;49.482;7.716;2023-03-23T06:29:35;3.43;;;2.77;;
11541;SDS011;5827;49.482;7.716;2023-03-23T06:31:37;3.60;;;2.43;;
11541;SDS011;5827;49.482;7.716;2023-03-23T06:33:40;3.90;;;2.87;;
11541;SDS011;5827;49.482;7.716;2023-03-23T06:35:42;3.70;;;2.87;;
11541;SDS011;5827;49.482;7.716;2023-03-23T06:37:44;5.20;;;2.60;;
11541;SDS011;5827;49.482;7.716;2023-03-23T06:39:47;3.30;;;2.70;;
11541;SDS011;5827;49.482;7.716;2023-03-23T06:41:49;3.63;;;2.93;;
11541;SDS011;5827;49.482;7.716;2023-03-23T06:43:50;6.27;;;3.70;;
11541;SDS011;5827;49.482;7.716;2023-03-23T06:45:52;3.20;;;2.90;;
11541;SDS011;5827;49.482;7.716;2023-03-23T06:47:54;3.33;;;2.70;;
11541;SDS011;5827;49.482;7.716;2023-03-23T06:49:56;4.23;;;2.83;;
11541;SDS011;5827;49.482;7.716;2023-03-23T06:51:57;3.17;;;2.63;;
11541;SDS011;5827;49.482;7.716;2023-03-23T06:54:00;3.77;;;2.70;;
11541;SDS011;5827;49.482;7.716;2023-03-23T06:56:03;5.43;;;4.60;;
11541;SDS011;5827;49.482;7.716;2023-03-23T06:58:05;3.80;;;3.33;;
11541;SDS011;5827;49.482;7.716;2023-03-23T07:00:07;3.30;;;3.00;;
11541;SDS011;5827;49.482;7.716;2023-03-23T07:02:12;3.30;;;2.87;;
11541;SDS011;5827;49.482;7.716;2023-03-23T07:04:15;5.07;;;3.67;;
11541;SDS011;5827;49.482;7.716;2023-03-23T07:06:17;7.50;;;3.30;;
11541;SDS011;5827;49.482;7.716;2023-03-23T07:08:19;5.00;;;3.30;;
11541;SDS011;5827;49.482;7.716;2023-03-23T07:10:20;3.63;;;2.90;;
11541;SDS011;5827;49.482;7.716;2023-03-23T07:12:23;3.53;;;2.70;;
11541;SDS011;5827;49.482;7.716;2023-03-23T07:14:25;7.03;;;4.23;;
11541;SDS011;5827;49.482;7.716;2023-03-23T07:16:27;5.37;;;4.43;;
11541;SDS011;5827;49.482;7.716;2023-03-23T07:18:28;5.10;;;3.80;;
11541;SDS011;5827;49.482;7.716;2023-03-23T07:20:30;4.10;;;3.70;;
11541;SDS011;5827;49.482;7.716;2023-03-23T07:22:32;4.60;;;3.03;;
11541;SDS011;5827;49.482;7.716;2023-03-23T07:24:35;8.33;;;6.53;;
11541;SDS011;5827;49.482;7.716;2023-03-23T07:26:36;7.60;;;4.70;;
11541;SDS011;5827;49.482;7.716;2023-03-23T07:28:39;3.83;;;2.90;;
11541;SDS011;5827;49.482;7.716;2023-03-23T07:30:41;4.47;;;3.30;;
11541;SDS011;5827;49.482;7.716;2023-03-23T07:32:43;4.63;;;3.97;;
11541;SDS011;5827;49.482;7.716;2023-03-23T07:34:44;5.53;;;3.80;;
11541;SDS011;5827;49.482;7.716;2023-03-23T07:36:46;9.97;;;6.43;;
11541;SDS011;5827;49.482;7.716;2023-03-23T07:38:48;3.97;;;3.67;;
11541;SDS011;5827;49.482;7.716;2023-03-23T07:40:50;5.17;;;3.77;;
11541;SDS011;5827;49.482;7.716;2023-03-23T07:42:52;4.40;;;2.70;;
11541;SDS011;5827;49.482;7.716;2023-03-23T07:44:56;3.17;;;2.70;;
11541;SDS011;5827;49.482;7.716;2023-03-23T07:46:57;4.50;;;2.83;;
11541;SDS011;5827;49.482;7.716;2023-03-23T07:48:59;3.90;;;2.47;;
11541;SDS011;5827;49.482;7.716;2023-03-23T07:51:05;2.60;;;2.40;;
11541;SDS011;5827;49.482;7.716;2023-03-23T07:53:08;4.37;;;2.50;;
11541;SDS011;5827;49.482;7.716;2023-03-23T07:55:11;3.13;;;2.30;;
11541;SDS011;5827;49.482;7.716;2023-03-23T07:57:17;3.13;;;2.27;;
11541;SDS011;5827;49.482;7.716;2023-03-23T07:59:18;3.67;;;2.43;;
11541;SDS011;5827;49.482;7.716;2023-03-23T08:01:21;3.57;;;2.20;;
11541;SDS011;5827;49.482;7.716;2023-03-23T08:03:23;3.47;;;2.30;;
11541;SDS011;5827;49.482;7.716;2023-03-23T08:05:26;2.47;;;2.27;;
11541;SDS011;5827;49.482;7.716;2023-03-23T08:07:28;3.70;;;2.17;;
11541;SDS011;5827;49.482;7.716;2023-03-23T08:09:30;2.83;;;2.20;;
11541;SDS011;5827;49.482;7.716;2023-03-23T08:11:31;2.43;;;2.20;;
11541;SDS011;5827;49.482;7.716;2023-03-23T08:13:33;5.03;;;2.20;;
11541;SDS011;5827;49.482;7.716;2023-03-23T08:15:35;3.30;;;2.33;;
11541;SDS011;5827;49.482;7.716;2023-03-23T08:17:39;4.17;;;2.40;;
11541;SDS011;5827;49.482;7.716;2023-03-23T08:19:41;2.63;;;2.37;;
11541;SDS011;5827;49.482;7.716;2023-03-23T08:21:43;2.60;;;2.40;;
11541;SDS011;5827;49.482;7.716;2023-03-23T08:23:44;2.80;;;2.40;;
11541;SDS011;5827;49.482;7.716;2023-03-23T08:25:46;3.50;;;2.30;;
11541;SDS011;5827;49.482;7.716;2023-03-23T08:27:48;3.87;;;2.33;;
11541;SDS011;5827;49.482;7.716;2023-03-23T08:29:50;2.73;;;1.90;;
11541;SDS011;5827;49.482;7.716;2023-03-23T08:31:52;3.17;;;2.13;;
11541;SDS011;5827;49.482;7.716;2023-03-23T08:33:55;2.57;;;2.10;;
11541;SDS011;5827;49.482;7.716;2023-03-23T08:35:57;4.37;;;1.93;;
11541;SDS011;5827;49.482;7.716;2023-03-23T08:37:59;1.87;;;1.77;;
11541;SDS011;5827;49.482;7.716;2023-03-23T08:40:01;1.80;;;1.70;;
11541;SDS011;5827;49.482;7.716;2023-03-23T08:42:08;2.77;;;1.97;;
11541;SDS011;5827;49.482;7.716;2023-03-23T08:44:11;2.37;;;2.03;;
11541;SDS011;5827;49.482;7.716;2023-03-23T08:46:12;3.13;;;2.00;;
11541;SDS011;5827;49.482;7.716;2023-03-23T08:48:14;3.40;;;2.27;;
11541;SDS011;5827;49.482;7.716;2023-03-23T08:50:18;3.00;;;2.10;;
11541;SDS011;5827;49.482;7.716;2023-03-23T08:52:22;2.20;;;2.00;;
11541;SDS011;5827;49.482;7.716;2023-03-23T08:54:24;2.67;;;2.03;;
11541;SDS011;5827;49.482;7.716;2023-03-23T08:56:26;3.60;;;2.37;;
11541;SDS011;5827;49.482;7.716;2023-03-23T08:58:28;3.80;;;2.00;;
11541;SDS011;5827;49.482;7.716;2023-03-23T09:00:29;3.00;;;2.40;;
11541;SDS011;5827;49.482;7.716;2023-03-23T09:02:32;2.10;;;1.90;;
11541;SDS011;5827;49.482;7.716;2023-03-23T09:04:34;2.90;;;2.00;;
11541;SDS011;5827;49.482;7.716;2023-03-23T09:06:38;2.87;;;2.03;;
11541;SDS011;5827;49.482;7.716;2023-03-23T09:08:39;2.73;;;1.80;;
11541;SDS011;5827;49.482;7.716;2023-03-23T09:10:41;3.20;;;2.10;;
11541;SDS011;5827;49.482;7.716;2023-03-23T09:12:42;3.40;;;2.17;;
11541;SDS011;5827;49.482;7.716;2023-03-23T09:14:45;2.40;;;1.90;;
11541;SDS011;5827;49.482;7.716;2023-03-23T09:16:46;3.23;;;1.90;;
11541;SDS011;5827;49.482;7.716;2023-03-23T09:18:48;2.20;;;2.00;;
11541;SDS011;5827;49.482;7.716;2023-03-23T09:20:51;3.33;;;2.20;;
11541;SDS011;5827;49.482;7.716;2023-03-23T09:22:55;2.23;;;1.90;;
11541;SDS011;5827;49.482;7.716;2023-03-23T09:24:58;2.20;;;2.00;;
11541;SDS011;5827;49.482;7.716;2023-03-23T09:27:00;2.20;;;1.90;;
11541;SDS011;5827;49.482;7.716;2023-03-23T09:29:02;3.53;;;2.13;;
11541;SDS011;5827;49.482;7.716;2023-03-23T09:31:03;2.30;;;2.03;;
11541;SDS011;5827;49.482;7.716;2023-03-23T09:33:06;2.73;;;2.13;;
11541;SDS011;5827;49.482;7.716;2023-03-23T09:35:09;2.10;;;2.00;;
11541;SDS011;5827;49.482;7.716;2023-03-23T09:37:12;2.43;;;2.00;;
11541;SDS011;5827;49.482;7.716;2023-03-23T09:39:15;3.13;;;2.17;;
11541;SDS011;5827;49.482;7.716;2023-03-23T09:41:21;2.53;;;2.00;;
11541;SDS011;5827;49.482;7.716;2023-03-23T09:43:45;2.10;;;1.90;;
11541;SDS011;5827;49.482;7.716;2023-03-23T09:45:59;2.33;;;1.87;;
11541;SDS011;5827;49.482;7.716;2023-03-23T09:48:17;3.70;;;1.90;;
11541;SDS011;5827;49.482;7.716;2023-03-23T09:50:28;2.50;;;2.27;;
11541;SDS011;5827;49.482;7.716;2023-03-23T09:52:34;3.00;;;1.97;;
11541;SDS011;5827;49.482;7.716;2023-03-23T09:54:46;2.17;;;1.97;;
11541;SDS011;5827;49.482;7.716;2023-03-23T09:56:49;2.37;;;1.80;;
11541;SDS011;5827;49.482;7.716;2023-03-23T09:58:53;3.80;;;2.20;;
11541;SDS011;5827;49.482;7.716;2023-03-23T10:01:00;3.60;;;2.00;;
11541;SDS011;5827;49.482;7.716;2023-03-23T10:03:11;2.70;;;1.80;;
11541;SDS011;5827;49.482;7.716;2023-03-23T10:05:22;1.93;;;1.80;;
11541;SDS011;5827;49.482;7.716;2023-03-23T10:07:28;2.17;;;1.87;;
11541;SDS011;5827;49.482;7.716;2023-03-23T10:09:30;2.67;;;1.93;;
11541;SDS011;5827;49.482;7.716;2023-03-23T10:11:36;2.43;;;1.87;;
11541;SDS011;5827;49.482;7.716;2023-03-23T10:13:50;2.27;;;1.80;;
11541;SDS011;5827;49.482;7.716;2023-03-23T10:16:01;2.53;;;1.73;;
11541;SDS011;5827;49.482;7.716;2023-03-23T10:18:10;2.57;;;2.00;;
11541;SDS011;5827;49.482;7.716;2023-03-23T10:20:22;3.17;;;1.70;;
11541;SDS011;5827;49.482;7.716;2023-03-23T10:22:33;2.27;;;1.90;;
11541;SDS011;5827;49.482;7.716;2023-03-23T10:24:43;2.60;;;1.80;;
11541;SDS011;5827;49.482;7.716;2023-03-23T10:26:58;2.33;;;1.43;;
11541;SDS011;5827;49.482;7.716;2023-03-23T10:29:14;2.57;;;1.70;;
11541;SDS011;5827;49.482;7.716;2023-03-23T10:31:21;1.60;;;1.50;;
11541;SDS011;5827;49.482;7.716;2023-03-23T10:33:25;3.10;;;2.00;;
11541;SDS011;5827;49.482;7.716;2023-03-23T10:35:38;1.80;;;1.70;;
11541;SDS011;5827;49.482;7.716;2023-03-23T10:37:44;1.80;;;1.60;;
11541;SDS011;5827;49.482;7.716;2023-03-23T10:39:52;1.83;;;1.50;;
11541;SDS011;5827;49.482;7.716;2023-03-23T10:41:59;4.40;;;1.70;;
11541;SDS011;5827;49.482;7.716;2023-03-23T10:44:09;1.73;;;1.63;;
11541;SDS011;5827;49.482;7.716;2023-03-23T10:46:15;1.83;;;1.60;;
11541;SDS011;5827;49.482;7.716;2023-03-23T10:48:25;2.93;;;1.97;;
11541;SDS011;5827;49.482;7.716;2023-03-23T10:50:34;1.90;;;1.77;;
11541;SDS011;5827;49.482;7.716;2023-03-23T10:52:39;2.00;;;1.70;;
11541;SDS011;5827;49.482;7.716;2023-03-23T10:54:46;2.73;;;2.13;;
11541;SDS011;5827;49.482;7.716;2023-03-23T10:56:51;2.10;;;1.67;;
11541;SDS011;5827;49.482;7.716;2023-03-23T10:58:55;3.20;;;2.97;;
11541;SDS011;5827;49.482;7.716;2023-03-23T11:00:57;3.50;;;2.40;;
11541;SDS011;5827;49.482;7.716;2023-03-23T11:03:01;2.80;;;2.37;;
11541;SDS011;5827;49.482;7.716;2023-03-23T11:05:06;5.73;;;4.77;;
11541;SDS011;5827;49.482;7.716;2023-03-23T11:07:17;4.23;;;3.70;;
11541;SDS011;5827;49.482;7.716;2023-03-23T11:09:32;3.00;;;2.70;;
11541;SDS011;5827;49.482;7.716;2023-03-23T11:11:37;3.77;;;2.73;;
11541;SDS011;5827;49.482;7.716;2023-03-23T11:13:43;3.77;;;3.43;;
11541;SDS011;5827;49.482;7.716;2023-03-23T11:15:48;3.70;;;3.10;;
11541;SDS011;5827;49.482;7.716;2023-03-23T11:17:57;3.13;;;2.50;;
11541;SDS011;5827;49.482;7.716;2023-03-23T11:20:09;2.27;;;2.07;;
11541;SDS011;5827;49.482;7.716;2023-03-23T11:22:13;3.07;;;2.50;;
11541;SDS011;5827;49.482;7.716;2023-03-23T11:24:21;3.23;;;2.30;;
11541;SDS011;5827;49.482;7.716;2023-03-23T11:26:25;5.10;;;4.47;;
11541;SDS011;5827;49.482;7.716;2023-03-23T11:28:30;4.60;;;3.13;;
11541;SDS011;5827;49.482;7.716;2023-03-23T11:30:34;3.00;;;2.70;;
11541;SDS011;5827;49.482;7.716;2023-03-23T11:32:37;3.07;;;2.73;;
11541;SDS011;5827;49.482;7.716;2023-03-23T11:34:44;5.40;;;1.87;;
11541;SDS011;5827;49.482;7.716;2023-03-23T11:36:48;2.93;;;2.20;;
11541;SDS011;5827;49.482;7.716;2023-03-23T11:38:53;2.17;;;1.97;;
11541;SDS011;5827;49.482;7.716;2023-03-23T11:40:57;1.97;;;1.80;;
11541;SDS011;5827;49.482;7.716;2023-03-23T11:43:06;2.73;;;2.30;;
11541;SDS011;5827;49.482;7.716;2023-03-23T11:45:17;2.00;;;1.73;;
11541;SDS011;5827;49.482;7.716;2023-03-23T11:47:22;2.20;;;1.50;;
11541;SDS011;5827;49.482;7.716;2023-03-23T11:49:33;1.97;;;1.40;;
11541;SDS011;5827;49.482;7.716;2023-03-23T11:51:42;2.23;;;2.00;;
11541;SDS011;5827;49.482;7.716;2023-03-23T11:53:49;1.70;;;1.60;;
11541;SDS011;5827;49.482;7.716;2023-03-23T11:55:58;1.63;;;1.53;;
11541;SDS011;5827;49.482;7.716;2023-03-23T11:58:09;3.50;;;3.20;;
11541;SDS011;5827;49.482;7.716;2023-03-23T12:00:14;3.33;;;2.07;;
11541;SDS011;5827;49.482;7.716;2023-03-23T12:02:26;3.40;;;1.73;;
11541;SDS011;5827;49.482;7.716;2023-03-23T12:04:50;1.73;;;1.50;;
11541;SDS011;5827;49.482;7.716;2023-03-23T12:07:02;1.40;;;1.30;;
11541;SDS011;5827;49.482;7.716;2023-03-23T12:09:17;1.50;;;1.40;;
11541;SDS011;5827;49.482;7.716;2023-03-23T12:11:28;1.73;;;1.43;;
11541;SDS011;5827;49.482;7.716;2023-03-23T12:13:41;2.27;;;1.70;;
11541;SDS011;5827;49.482;7.716;2023-03-23T12:15:53;2.17;;;1.60;;
11541;SDS011;5827;49.482;7.716;2023-03-23T12:18:05;1.27;;;1.17;;
11541;SDS011;5827;49.482;7.716;2023-03-23T12:20:20;2.13;;;1.60;;
11541;SDS011;5827;49.482;7.716;2023-03-23T12:22:33;1.50;;;1.40;;
11541;SDS011;5827;49.482;7.716;2023-03-23T12:24:49;1.60;;;1.50;;
11541;SDS011;5827;49.482;7.716;2023-03-23T12:27:01;1.97;;;1.60;;
11541;SDS011;5827;49.482;7.716;2023-03-23T12:29:13;1.67;;;1.57;;
11541;SDS011;5827;49.482;7.716;2023-03-23T12:31:24;1.23;;;1.10;;
11541;SDS011;5827;49.482;7.716;2023-03-23T12:33:34;1.50;;;1.40;;
11541;SDS011;5827;49.482;7.716;2023-03-23T12:35:54;3.23;;;2.87;;
11541;SDS011;5827;49.482;7.716;2023-03-23T12:38:10;4.93;;;3.13;;
11541;SDS011;5827;49.482;7.716;2023-03-23T12:40:32;1.70;;;1.60;;
11541;SDS011;5827;49.482;7.716;2023-03-23T12:42:53;1.87;;;1.77;;
11541;SDS011;5827;49.482;7.716;2023-03-23T12:45:01;1.47;;;1.30;;